createdAt,value
2022-08-05T00:00:16.494Z,2.10
2022-08-05T00:02:50.458Z,2.08
2022-08-05T00:06:01.594Z,1.90
2022-08-05T00:08:34.974Z,1.75
2022-08-05T00:11:00.989Z,1.85
2022-08-05T00:13:38.704Z,2.47
2022-08-05T00:16:10.950Z,2.10
2022-08-05T00:18:42.426Z,1.50
2022-08-05T00:23:46.747Z,2.83
2022-08-05T00:26:23.374Z,1.90
2022-08-05T00:28:52.647Z,1.33
2022-08-05T00:31:54.494Z,2.25
2022-08-05T00:34:54.486Z,1.83
2022-08-05T00:37:11.208Z,1.63
2022-08-05T00:39:57.286Z,1.77
2022-08-05T00:42:37.164Z,2.05
2022-08-05T00:45:08.662Z,1.90
2022-08-05T00:47:57.103Z,1.63
2022-08-05T00:50:26.368Z,1.60
2022-08-05T00:52:55.367Z,1.63
2022-08-05T00:55:33.965Z,1.95
2022-08-05T00:58:04.722Z,2.75
2022-08-05T01:00:33.274Z,2.60
2022-08-05T01:03:02.060Z,2.20
2022-08-05T01:05:36.663Z,2.53
2022-08-05T01:08:40.260Z,2.75
2022-08-05T01:10:58.091Z,2.00
2022-08-05T01:13:58.670Z,2.25
2022-08-05T01:16:32.033Z,1.60
2022-08-05T01:19:07.999Z,1.70
2022-08-05T01:22:15.561Z,1.58
2022-08-05T01:25:10.327Z,1.30
2022-08-05T01:28:11.107Z,1.52
2022-08-05T01:30:53.498Z,1.80
2022-08-05T01:33:35.318Z,1.27
2022-08-05T01:36:12.820Z,1.67
2022-08-05T01:38:48.444Z,1.55
2022-08-05T01:41:25.781Z,1.63
2022-08-05T01:43:57.024Z,1.60
2022-08-05T01:46:42.278Z,1.83
2022-08-05T01:49:24.167Z,1.95
2022-08-05T01:51:58.743Z,1.92
2022-08-05T01:54:31.632Z,2.15
2022-08-05T01:58:09.845Z,1.40
2022-08-05T01:59:53.886Z,1.58
2022-08-05T02:02:26.183Z,1.55
2022-08-05T02:05:01.384Z,1.55
2022-08-05T02:07:33.733Z,1.60
2022-08-05T02:10:03.578Z,1.90
2022-08-05T02:12:39.969Z,2.05
2022-08-05T02:15:19.739Z,1.35
2022-08-05T02:18:31.343Z,1.85
2022-08-05T02:20:47.434Z,1.20
2022-08-05T02:23:22.521Z,1.65
2022-08-05T02:25:53.295Z,1.63
2022-08-05T02:28:29.297Z,1.88
2022-08-05T02:31:14.861Z,1.45
2022-08-05T02:33:50.254Z,1.25
2022-08-05T02:36:31.188Z,1.40
2022-08-05T02:39:01.458Z,2.17
2022-08-05T02:41:36.441Z,1.75
2022-08-05T02:44:24.646Z,1.52
2022-08-05T02:47:00.227Z,1.85
2022-08-05T02:49:36.701Z,1.27
2022-08-05T02:52:09.432Z,1.80
2022-08-05T02:54:41.553Z,1.80
2022-08-05T02:58:12.162Z,1.33
2022-08-05T03:00:03.441Z,1.50
2022-08-05T03:02:37.398Z,1.52
2022-08-05T03:05:08.957Z,1.70
2022-08-05T03:08:00.456Z,1.10
2022-08-05T03:10:28.998Z,1.67
2022-08-05T03:15:24.635Z,1.45
2022-08-05T03:17:57.644Z,1.60
2022-08-05T03:20:26.471Z,1.60
2022-08-05T03:22:57.656Z,1.30
2022-08-05T03:26:02.603Z,1.83
2022-08-05T03:28:18.522Z,1.52
2022-08-05T03:30:48.730Z,1.27
2022-08-05T03:33:19.755Z,1.33
2022-08-05T03:35:50.448Z,1.77
2022-08-05T03:38:23.916Z,1.13
2022-08-05T03:44:09.829Z,1.40
2022-08-05T03:46:29.725Z,1.65
2022-08-05T03:48:59.784Z,1.40
2022-08-05T03:52:38.148Z,2.03
2022-08-05T03:55:51.627Z,1.23
2022-08-05T03:57:42.622Z,1.52
2022-08-05T04:00:15.527Z,1.20
2022-08-05T04:02:58.173Z,1.23
2022-08-05T04:05:33.696Z,1.42
2022-08-05T04:08:05.799Z,1.83
2022-08-05T04:10:45.134Z,1.20
2022-08-05T04:13:13.911Z,1.10
2022-08-05T04:15:52.609Z,1.30
2022-08-05T04:18:34.253Z,2.00
2022-08-05T04:21:05.360Z,1.15
2022-08-05T04:23:57.255Z,1.30
2022-08-05T04:26:23.581Z,1.70
2022-08-05T04:28:52.227Z,1.10
2022-08-05T04:31:20.698Z,1.38
2022-08-05T04:34:19.379Z,1.10
2022-08-05T04:36:45.812Z,1.30
2022-08-05T04:39:18.204Z,2.00
2022-08-05T04:41:48.028Z,1.38
2022-08-05T04:44:29.164Z,1.23
2022-08-05T04:46:59.221Z,1.23
2022-08-05T04:49:38.911Z,1.40
2022-08-05T04:52:18.639Z,1.05
2022-08-05T04:54:47.217Z,1.17
2022-08-05T04:57:17.805Z,1.60
2022-08-05T04:59:48.122Z,2.00
2022-08-05T05:02:41.159Z,1.60
2022-08-05T05:05:25.925Z,1.77
2022-08-05T05:07:56.374Z,1.70
2022-08-05T05:10:29.781Z,1.13
2022-08-05T05:12:58.239Z,1.77
2022-08-05T05:15:59.113Z,1.50
2022-08-05T05:18:28.267Z,1.40
2022-08-05T05:20:59.643Z,1.90
2022-08-05T05:24:02.168Z,1.73
2022-08-05T05:26:18.281Z,2.08
2022-08-05T05:28:46.551Z,1.30
2022-08-05T05:31:14.969Z,1.20
2022-08-05T05:33:59.148Z,1.55
2022-08-05T05:36:29.746Z,1.20
2022-08-05T05:38:59.854Z,1.33
2022-08-05T05:41:40.488Z,1.30
2022-08-05T05:46:58.405Z,1.35
2022-08-05T05:49:33.064Z,1.58
2022-08-05T05:52:01.479Z,1.13
2022-08-05T05:54:50.053Z,1.58
2022-08-05T05:57:19.627Z,1.17
2022-08-05T05:59:48.813Z,1.10
2022-08-05T06:02:32.930Z,1.45
2022-08-05T06:05:10.548Z,1.08
2022-08-05T06:08:01.231Z,1.00
2022-08-05T06:10:36.581Z,1.35
2022-08-05T06:13:06.252Z,1.75
2022-08-05T06:16:30.495Z,1.23
2022-08-05T06:18:31.220Z,1.48
2022-08-05T06:21:00.148Z,1.55
2022-08-05T06:23:32.159Z,1.42
2022-08-05T06:26:21.373Z,1.30
2022-08-05T06:28:52.250Z,1.73
2022-08-05T06:31:22.328Z,1.30
2022-08-05T06:34:05.969Z,1.80
2022-08-05T06:36:53.691Z,1.20
2022-08-05T06:39:26.783Z,1.50
2022-08-05T06:41:58.997Z,1.38
2022-08-05T06:44:27.712Z,1.42
2022-08-05T06:46:56.016Z,1.30
2022-08-05T06:50:00.201Z,2.00
2022-08-05T06:52:38.157Z,1.42
2022-08-05T06:55:02.525Z,1.73
2022-08-05T06:58:02.824Z,2.10
2022-08-05T07:00:24.570Z,1.67
2022-08-05T07:02:53.712Z,1.80
2022-08-05T07:05:37.231Z,1.45
2022-08-05T07:08:11.097Z,1.20
2022-08-05T07:10:53.002Z,1.35
2022-08-05T07:13:59.538Z,1.52
2022-08-05T07:17:58.541Z,1.33
2022-08-05T07:22:28.592Z,1.52
2022-08-05T07:25:22.493Z,1.20
2022-08-05T07:27:58.151Z,1.77
2022-08-05T07:30:34.188Z,1.70
2022-08-05T07:33:05.554Z,1.95
2022-08-05T07:36:02.810Z,1.63
2022-08-05T07:38:34.170Z,2.00
2022-08-05T07:42:08.442Z,1.25
2022-08-05T07:43:57.783Z,1.90
2022-08-05T07:46:29.295Z,1.25
2022-08-05T07:49:05.487Z,1.55
2022-08-05T07:51:40.996Z,1.48
2022-08-05T07:54:30.582Z,1.33
2022-08-05T07:57:16.855Z,1.27
2022-08-05T07:59:50.178Z,1.77
2022-08-05T08:02:19.801Z,2.60
2022-08-05T08:04:55.890Z,1.23
2022-08-05T08:07:24.573Z,1.60
2022-08-05T08:09:56.858Z,1.35
2022-08-05T08:12:35.083Z,1.45
2022-08-05T08:15:15.404Z,1.50
2022-08-05T08:17:52.458Z,2.22
2022-08-05T08:21:00.312Z,1.25
2022-08-05T08:24:02.215Z,1.42
2022-08-05T08:26:04.438Z,1.60
2022-08-05T08:28:42.382Z,1.60
2022-08-05T08:31:21.780Z,1.90
2022-08-05T08:33:53.167Z,1.88
2022-08-05T08:36:39.240Z,1.50
2022-08-05T08:39:15.648Z,1.77
2022-08-05T08:41:52.344Z,1.80
2022-08-05T08:45:19.857Z,1.45
2022-08-05T08:48:06.179Z,1.20
2022-08-05T08:50:31.826Z,1.60
2022-08-05T08:53:12.032Z,1.38
2022-08-05T08:56:03.098Z,1.38
2022-08-05T08:58:43.437Z,1.13
2022-08-05T09:01:17.434Z,1.40
2022-08-05T09:03:48.386Z,1.33
2022-08-05T09:06:28.232Z,1.33
2022-08-05T09:08:59.293Z,1.10
2022-08-05T09:11:50.806Z,1.02
2022-08-05T09:14:58.425Z,1.17
2022-08-05T09:17:09.349Z,0.93
2022-08-05T09:20:01.921Z,1.38
2022-08-05T09:22:31.830Z,1.23
2022-08-05T09:25:02.140Z,0.63
2022-08-05T09:28:05.961Z,1.10
2022-08-05T09:30:30.505Z,1.00
2022-08-05T09:33:04.800Z,1.05
2022-08-05T09:35:33.403Z,0.98
2022-08-05T09:38:12.854Z,1.00
2022-08-05T09:40:53.540Z,1.08
2022-08-05T09:43:40.659Z,1.20
2022-08-05T09:46:27.487Z,0.68
2022-08-05T09:49:07.638Z,0.88
2022-08-05T09:51:39.933Z,1.25
2022-08-05T09:54:11.525Z,1.00
2022-08-05T09:56:40.919Z,0.82
2022-08-05T09:59:19.919Z,1.02
2022-08-05T10:01:48.597Z,0.63
2022-08-05T10:04:38.446Z,1.10
2022-08-05T10:07:19.640Z,0.75
2022-08-05T10:12:49.389Z,0.95
2022-08-05T10:15:22.693Z,0.82
2022-08-05T10:18:10.622Z,1.27
2022-08-05T10:20:41.809Z,0.70
2022-08-05T10:23:34.321Z,0.82
2022-08-05T10:26:03.995Z,0.98
2022-08-05T10:28:37.023Z,1.20
2022-08-05T10:32:53.842Z,1.05
2022-08-05T10:33:54.828Z,1.20
2022-08-05T10:36:23.776Z,1.00
2022-08-05T10:39:05.037Z,1.17
2022-08-05T10:41:47.832Z,0.98
2022-08-05T10:44:20.481Z,0.80
2022-08-05T10:46:54.407Z,0.90
2022-08-05T10:49:27.068Z,0.80
2022-08-05T10:52:00.301Z,1.17
2022-08-05T10:54:56.976Z,1.25
2022-08-05T10:57:34.021Z,1.30
2022-08-05T11:00:19.009Z,1.20
2022-08-05T11:03:24.777Z,1.00
2022-08-05T11:06:08.350Z,1.70
2022-08-05T11:09:32.418Z,1.10
2022-08-05T11:12:54.417Z,1.50
2022-08-05T11:16:00.756Z,1.13
2022-08-05T11:18:29.992Z,1.05
2022-08-05T11:21:02.255Z,0.93
2022-08-05T11:24:05.602Z,0.90
2022-08-05T11:26:32.134Z,1.33
2022-08-05T11:29:05.195Z,1.63
2022-08-05T11:31:58.420Z,1.67
2022-08-05T11:34:50.963Z,1.38
2022-08-05T11:38:28.067Z,1.60
2022-08-05T11:41:01.720Z,1.67
2022-08-05T11:44:05.128Z,1.90
2022-08-05T11:46:35.202Z,1.50
2022-08-05T11:49:10.031Z,1.67
2022-08-05T11:51:44.115Z,1.40
2022-08-05T11:54:33.831Z,1.20
2022-08-05T11:57:08.779Z,1.10
2022-08-05T11:59:53.694Z,1.42
2022-08-05T12:02:31.355Z,2.15
2022-08-05T12:05:07.010Z,1.83
2022-08-05T12:08:09.138Z,1.90
2022-08-05T12:10:43.533Z,2.10
2022-08-05T12:13:17.303Z,1.52
2022-08-05T12:15:56.714Z,1.33
2022-08-05T12:18:32.992Z,1.55
2022-08-05T12:21:13.122Z,1.55
2022-08-05T12:23:53.660Z,2.40
2022-08-05T12:26:23.185Z,1.85
2022-08-05T12:28:52.323Z,1.63
2022-08-05T12:31:23.783Z,1.45
2022-08-05T12:34:20.301Z,1.80
2022-08-05T12:36:53.524Z,2.13
2022-08-05T12:39:22.969Z,2.90
2022-08-05T12:41:58.017Z,2.22
2022-08-05T12:44:33.810Z,3.55
2022-08-05T12:47:03.653Z,3.17
2022-08-05T12:50:04.097Z,3.53
2022-08-05T12:52:39.033Z,3.58
2022-08-05T12:55:23.295Z,3.22
2022-08-05T12:58:48.268Z,2.92
2022-08-05T13:02:03.021Z,3.30
2022-08-05T13:03:41.787Z,3.20
2022-08-05T13:06:15.862Z,2.95
2022-08-05T13:08:52.353Z,3.03
2022-08-05T13:11:25.642Z,2.85
2022-08-05T13:14:35.829Z,2.25
2022-08-05T13:17:10.408Z,2.20
2022-08-05T13:19:52.382Z,2.85
2022-08-05T13:22:29.276Z,2.78
2022-08-05T13:25:05.795Z,2.42
2022-08-05T13:27:39.284Z,2.10
2022-08-05T13:30:33.618Z,2.00
2022-08-05T13:33:01.132Z,2.20
2022-08-05T13:38:28.629Z,2.13
2022-08-05T13:41:01.162Z,2.10
2022-08-05T13:43:44.188Z,1.98
2022-08-05T13:46:30.764Z,2.33
2022-08-05T13:49:10.170Z,1.75
2022-08-05T13:51:45.789Z,1.70
2022-08-05T13:54:16.073Z,1.60
2022-08-05T13:56:51.100Z,1.65
2022-08-05T13:59:24.032Z,1.90
2022-08-05T14:01:56.815Z,1.75
2022-08-05T14:04:49.409Z,1.67
2022-08-05T14:07:25.560Z,1.93
2022-08-05T14:10:08.337Z,1.55
2022-08-05T14:12:38.463Z,1.30
2022-08-05T14:16:07.367Z,1.10
2022-08-05T14:17:59.646Z,1.45
2022-08-05T14:20:29.657Z,1.35
2022-08-05T14:22:58.379Z,2.25
2022-08-05T14:25:30.123Z,1.50
2022-08-05T14:30:28.839Z,1.63
2022-08-05T14:32:58.943Z,1.65
2022-08-05T14:35:36.303Z,1.48
2022-08-05T14:38:05.817Z,1.50
2022-08-05T14:40:54.342Z,1.55
2022-08-05T14:43:59.127Z,1.50
2022-08-05T14:46:12.315Z,1.88
2022-08-05T14:48:40.536Z,1.40
2022-08-05T14:51:08.834Z,1.75
2022-08-05T14:53:44.423Z,1.25
2022-08-05T14:56:13.440Z,1.33
2022-08-05T14:58:47.867Z,1.30
2022-08-05T15:01:47.879Z,1.42
2022-08-05T15:04:11.982Z,1.40
2022-08-05T15:06:40.581Z,1.17
2022-08-05T15:09:08.831Z,1.20
2022-08-05T15:11:51.388Z,1.23
2022-08-05T15:14:34.995Z,1.98
2022-08-05T15:17:46.840Z,1.30
2022-08-05T15:19:58.490Z,1.52
2022-08-05T15:22:28.211Z,1.40
2022-08-05T15:24:58.582Z,0.90
2022-08-05T15:27:32.053Z,1.10
2022-08-05T15:30:06.784Z,1.00
2022-08-05T15:32:34.992Z,1.50
2022-08-05T15:35:04.109Z,1.10
2022-08-05T15:38:08.391Z,1.15
2022-08-05T15:41:01.992Z,1.10
2022-08-05T15:43:20.324Z,1.23
2022-08-05T15:46:00.357Z,1.20
2022-08-05T15:48:30.839Z,1.05
2022-08-05T15:51:03.616Z,1.30
2022-08-05T15:53:38.535Z,1.20
2022-08-05T15:56:20.158Z,1.02
2022-08-05T15:58:48.686Z,1.40
2022-08-05T16:01:20.055Z,1.77
2022-08-05T16:03:50.489Z,1.27
2022-08-05T16:06:19.993Z,1.33
2022-08-05T16:08:51.043Z,1.30
2022-08-05T16:11:39.915Z,1.42
2022-08-05T16:14:10.622Z,1.80
2022-08-05T16:16:47.283Z,1.75
2022-08-05T16:19:25.475Z,2.78
2022-08-05T16:22:04.665Z,2.42
2022-08-05T16:24:40.771Z,1.90
2022-08-05T16:27:32.074Z,2.03
2022-08-05T16:30:26.472Z,2.25
2022-08-05T16:32:58.829Z,1.98
2022-08-05T16:35:33.426Z,2.20
2022-08-05T16:38:24.681Z,1.85
2022-08-05T16:40:55.588Z,1.98
2022-08-05T16:43:31.646Z,1.80
2022-08-05T16:46:05.963Z,2.45
2022-08-05T16:48:39.386Z,2.10
2022-08-05T16:51:09.452Z,2.25
2022-08-05T16:54:03.885Z,2.20
2022-08-05T16:56:29.369Z,2.42
2022-08-05T16:58:58.043Z,1.77
2022-08-05T17:01:26.369Z,2.28
2022-08-05T17:03:56.261Z,2.38
2022-08-05T17:06:24.941Z,2.38
2022-08-05T17:08:54.334Z,2.00
2022-08-05T17:11:25.655Z,2.10
2022-08-05T17:13:54.799Z,2.08
2022-08-05T17:16:36.658Z,2.30
2022-08-05T17:19:09.674Z,2.20
2022-08-05T17:21:40.096Z,2.10
2022-08-05T17:24:28.067Z,2.70
2022-08-05T17:26:58.580Z,2.30
2022-08-05T17:29:33.072Z,3.38
2022-08-05T17:32:11.142Z,3.10
2022-08-05T17:34:42.205Z,2.38
2022-08-05T17:37:29.413Z,2.33
2022-08-05T17:40:00.074Z,2.20
2022-08-05T17:42:31.972Z,2.40
2022-08-05T17:45:10.086Z,2.67
2022-08-05T17:47:53.827Z,2.28
2022-08-05T17:50:28.358Z,2.28
2022-08-05T17:52:59.041Z,2.10
2022-08-05T17:55:34.234Z,2.50
2022-08-05T17:58:03.621Z,2.65
2022-08-05T18:00:32.917Z,2.90
2022-08-05T18:03:02.656Z,2.40
2022-08-05T18:05:35.558Z,2.88
2022-08-05T18:08:04.974Z,2.85
2022-08-05T18:10:36.089Z,2.78
2022-08-05T18:13:07.840Z,2.65
2022-08-05T18:15:40.965Z,3.13
2022-08-05T18:18:11.477Z,2.92
2022-08-05T18:20:41.158Z,3.35
2022-08-05T18:23:15.205Z,3.85
2022-08-05T18:25:46.295Z,5.00
2022-08-05T18:28:28.494Z,3.22
2022-08-05T18:30:56.841Z,2.92
2022-08-05T18:33:24.970Z,3.25
2022-08-05T18:36:03.711Z,2.25
2022-08-05T18:38:35.993Z,2.85
2022-08-05T18:41:56.736Z,2.60
2022-08-05T18:43:53.020Z,2.78
2022-08-05T18:46:21.299Z,2.60
2022-08-05T18:48:54.899Z,2.85
2022-08-05T18:52:06.355Z,2.70
2022-08-05T18:54:31.389Z,2.50
2022-08-05T18:57:01.052Z,2.38
2022-08-05T18:59:43.707Z,2.65
2022-08-05T19:02:27.790Z,2.85
2022-08-05T19:05:02.751Z,2.72
2022-08-05T19:07:48.146Z,2.10
2022-08-05T19:10:16.758Z,2.28
2022-08-05T19:12:46.126Z,2.58
2022-08-05T19:15:57.744Z,2.67
2022-08-05T19:18:09.124Z,2.35
2022-08-05T19:20:41.753Z,2.20
2022-08-05T19:23:22.515Z,2.67
2022-08-05T19:26:02.802Z,2.55
2022-08-05T19:28:32.772Z,2.90
2022-08-05T19:31:01.467Z,2.38
2022-08-05T19:33:36.845Z,2.33
2022-08-05T19:36:06.785Z,2.78
2022-08-05T19:38:36.933Z,2.00
2022-08-05T19:41:07.199Z,2.20
2022-08-05T19:44:06.134Z,2.15
2022-08-05T19:46:30.031Z,2.05
2022-08-05T19:49:03.219Z,2.60
2022-08-05T19:52:04.696Z,1.65
2022-08-05T19:54:29.726Z,3.95
2022-08-05T19:57:02.420Z,2.72
2022-08-05T19:59:54.660Z,2.25
2022-08-05T20:02:23.922Z,2.28
2022-08-05T20:04:55.532Z,2.78
2022-08-05T20:07:48.663Z,2.47
2022-08-05T20:10:22.164Z,2.28
2022-08-05T20:12:52.632Z,2.25
2022-08-05T20:15:23.030Z,2.42
2022-08-05T20:18:33.332Z,2.65
2022-08-05T20:20:59.962Z,2.60
2022-08-05T20:23:39.269Z,2.22
2022-08-05T20:26:19.610Z,2.28
2022-08-05T20:28:48.829Z,3.20
2022-08-05T20:31:17.778Z,2.88
2022-08-05T20:33:50.262Z,2.20
2022-08-05T20:36:19.599Z,3.00
2022-08-05T20:38:54.610Z,2.70
2022-08-05T20:41:43.957Z,2.42
2022-08-05T20:44:19.017Z,2.75
2022-08-05T20:46:58.961Z,3.00
2022-08-05T20:49:27.368Z,2.55
2022-08-05T20:51:57.354Z,2.88
2022-08-05T20:54:59.805Z,2.70
2022-08-05T20:57:24.748Z,2.78
2022-08-05T21:00:20.638Z,3.05
2022-08-05T21:03:01.392Z,3.47
2022-08-05T21:05:48.264Z,3.03
2022-08-05T21:08:18.520Z,2.47
2022-08-05T21:10:49.089Z,2.70
2022-08-05T21:13:37.881Z,2.85
2022-08-05T21:16:07.737Z,2.40
2022-08-05T21:18:36.077Z,2.97
2022-08-05T21:21:04.439Z,2.58
2022-08-05T21:23:35.920Z,2.90
2022-08-05T21:26:08.349Z,2.65
2022-08-05T21:28:50.876Z,3.20
2022-08-05T21:31:19.517Z,2.70
2022-08-05T21:33:49.393Z,3.08
2022-08-05T21:36:19.205Z,3.38
2022-08-05T21:38:56.251Z,3.22
2022-08-05T21:41:24.510Z,2.30
2022-08-05T21:44:04.152Z,2.40
2022-08-05T21:46:34.662Z,2.22
2022-08-05T21:49:07.375Z,2.75
2022-08-05T21:52:16.412Z,2.50
2022-08-05T21:54:30.858Z,2.13
2022-08-05T21:57:28.321Z,3.08
2022-08-05T22:00:03.910Z,3.05
2022-08-05T22:02:34.078Z,2.97
2022-08-05T22:05:04.491Z,2.45
2022-08-05T22:07:40.081Z,1.98
2022-08-05T22:10:26.743Z,2.20
2022-08-05T22:12:57.183Z,2.78
2022-08-05T22:16:02.383Z,2.92
2022-08-05T22:18:16.110Z,2.40
2022-08-05T22:20:47.894Z,2.90
2022-08-05T22:24:01.712Z,2.28
2022-08-05T22:26:43.352Z,2.83
2022-08-05T22:29:18.662Z,3.00
2022-08-05T22:31:55.334Z,2.42
2022-08-05T22:34:28.713Z,2.20
2022-08-05T22:36:58.270Z,2.40
2022-08-05T22:39:33.006Z,2.63
2022-08-05T22:42:09.385Z,3.00
2022-08-05T22:44:40.618Z,2.63
2022-08-05T22:47:12.268Z,2.47
2022-08-05T22:50:17.562Z,3.15
2022-08-05T22:52:32.361Z,2.63
2022-08-05T22:55:02.547Z,3.10
2022-08-05T22:57:36.236Z,2.78
2022-08-05T23:00:07.794Z,2.58
2022-08-05T23:02:46.458Z,2.78
2022-08-05T23:05:15.522Z,2.33
2022-08-05T23:07:48.332Z,3.25
2022-08-05T23:10:20.160Z,2.78
2022-08-05T23:12:51.670Z,2.50
2022-08-05T23:15:27.111Z,1.77
2022-08-05T23:18:03.418Z,3.00
2022-08-05T23:20:37.198Z,2.78
2022-08-05T23:23:08.430Z,2.70
2022-08-05T23:25:52.960Z,2.63
2022-08-05T23:28:27.790Z,2.72
2022-08-05T23:31:16.208Z,2.40
2022-08-05T23:34:06.194Z,2.17
2022-08-05T23:36:38.755Z,2.20
2022-08-05T23:39:08.982Z,3.03
2022-08-05T23:41:41.005Z,2.85
2022-08-05T23:44:16.924Z,2.22
2022-08-05T23:46:48.294Z,3.17
2022-08-05T23:49:23.814Z,2.75
2022-08-05T23:52:19.627Z,2.35
2022-08-05T23:54:50.974Z,2.60
2022-08-05T23:57:19.553Z,2.80
